x

Smith Island, Wa (sisw1) Weather Station

4:00 - Thu 28th Jul 2016 All times are PDT. -7 hours from GMT.

  • Wind
    8mph
  • Luft Temp 53°f
  • Sea Pressure 1020mb
  • Smith Island, Wa
  • Smith Island, Wa

More Historic Weather Station data

Upgrade to MSW Pro to gain access to the past 30 days of data for over 8000 Wavebouys and Weather Stations around the globe.

Join Pro

Comparision Forecast

View Surf forecast
   
Do 07/28 4:00 8
mph
1020mb 53f
3:00 5 6 mph 1019.8mb 53f
2:00 5 7 mph 1019.6mb 53f
1:00 8 9 mph 1019.6mb 54f
12:00 10 13 mph 1019.8mb 54f
Mi 07/27 11:00 11 13 mph 1019.8mb 55f
10:00 8 11 mph 1019.5mb 55f
9:00 5 6 mph 1019.1mb 56f
8:00 9 13 mph 1018.8mb 57f
7:00 11 14 mph 1018.9mb 58f
6:00 13 16 mph 1019.1mb 58f
5:00 5 7 mph 1019.3mb 60f
4:00 8 9 mph 1019.5mb 59f
3:00 7 8 mph 1020.1mb 60f
2:00 7 8 mph 1020.5mb 60f
1:00 6
mph
1020.6mb 63f
12:00 1 2 mph 1021mb 61f
11:00 2
mph
1021.1mb 57f
10:00 2 3 mph 1021.2mb 55f
9:00 2 3 mph 1021.4mb 53f
8:00 8
mph
1021.1mb 52f
7:00 6 7 mph 1020.7mb 51f
6:00 7 8 mph 1020.4mb 51f
5:00 10 11 mph 1020.1mb 51f
4:00 10 13 mph 1019.8mb 52f
3:00 13 14 mph 1019.6mb 52f
2:00 14 15 mph 1019.3mb 52f
1:00 15 17 mph 1019.5mb 53f
12:00 18 21 mph 1019.5mb 53f
Di 07/26 11:00 22 24 mph 1019.5mb 53f
10:00 28 31 mph 1019.4mb 55f
9:00 28 30 mph 1019mb 55f
8:00 23 25 mph 1019.2mb 56f
7:00 18 21 mph 1019.3mb 57f
6:00 16 17 mph 1019.6mb 57f
5:00 13 14 mph 1020mb 59f
4:00 14 15 mph 1020.4mb 59f
3:00 10 11 mph 1020.9mb 61f
2:00 9
mph
1021.4mb 60f
1:00 9 10 mph 1021.7mb 57f
12:00 10
mph
1021.8mb 60f
11:00 17 18 mph 1021.7mb 58f
10:00 18 20 mph 1021.6mb 57f
9:00 20
mph
1021.4mb 56f
8:00 20 21 mph 1021mb 55f
7:00 20 21 mph 1020.4mb 54f
6:00 20 21 mph 1019.9mb 54f
5:00 21 22 mph 1019.5mb 54f
4:00 20 21 mph 1019.2mb 54f
3:00 16 18 mph 1019.1mb 55f
2:00 17 20 mph 1018.7mb 55f
1:00 6 8 mph 1018.5mb 55f
12:00 13 14 mph 1018mb 55f
Mo 07/25 11:00 24 29 mph 1017.3mb 56f
10:00 20 26 mph 1017.3mb 55f
9:00 17 24 mph 1017mb 55f
8:00 23 32 mph 1016.7mb 55f
7:00 20 23 mph 1016.9mb 56f
6:00 21 22 mph 1017.7mb 58f
5:00 14 17 mph 1017.9mb 59f
4:00 13 15 mph 1018mb 60f
3:00 6 7 mph 1018.5mb 60f
2:00 7 9 mph 1018.7mb 60f
1:00 6 7 mph 1018.9mb 58f
12:00 6 7 mph 1019.2mb 57f
11:00 7
mph
1019.1mb 57f
10:00 7 8 mph 1018.9mb 55f
9:00 11
mph
1018.7mb 55f
8:00 11 13 mph 1018.5mb 55f
7:00 9 10 mph 1018mb 54f
6:00 8 9 mph 1017.7mb 53f
5:00 8
mph
1017.4mb 53f
4:00 6 7 mph 1017.2mb 53f
3:00 8 9 mph 1017mb 54f
2:00 9
mph
1016.8mb 54f
1:00 10 11 mph 1016.9mb 54f
12:00 11 16 mph 1016.8mb 55f
So 07/24 11:00 16 20 mph 1016.9mb 55f
10:00 15 18 mph 1017.1mb 55f
9:00 16 21 mph 1016.9mb 55f
8:00 16 21 mph 1017mb 56f
7:00 14 17 mph 1017.2mb 57f
6:00 9 10 mph 1017.8mb 58f
5:00 8 9 mph 1018.5mb 57f
4:00 6 8 mph 1019mb 58f
3:00 6 8 mph 1019.3mb 58f
2:00 8 9 mph 1019.7mb 59f
1:00 6 7 mph 1020.1mb 59f